Time;durP1;ratioP1;P1;durP2;ratioP2;P2;SDS_P1;SDS_P2;PMS_P1;PMS_P2;Temp;Humidity;BMP_temperature;BMP_pressure;BME280_temperature;BME280_humidity;BME280_pressure;Samples;Min_cycle;Max_cycle;Signal;HPM_P1;HPM_P2
2022/04/10 00:00:54;;;;;;;21.23;11.70;;;;;;;1.51;84.47;101745.34;5073247;28;20077;-55
2022/04/10 00:03:20;;;;;;;21.73;12.13;;;;;;;1.47;83.89;101735.91;5073621;28;20039;-54
2022/04/10 00:05:46;;;;;;;23.35;11.18;;;;;;;1.47;84.40;101744.91;5073331;28;20044;-52
2022/04/10 00:08:12;;;;;;;20.38;11.45;;;;;;;1.40;84.52;101746.88;5072461;28;20038;-52
2022/04/10 00:10:37;;;;;;;18.92;11.10;;;;;;;1.37;84.57;101745.44;5073234;28;20032;-51
2022/04/10 00:13:02;;;;;;;22.17;11.80;;;;;;;1.35;84.76;101749.44;5073213;28;20032;-53
2022/04/10 00:15:28;;;;;;;21.05;11.60;;;;;;;1.30;84.39;101741.94;5073791;28;20030;-55
2022/04/10 00:17:53;;;;;;;19.98;11.32;;;;;;;1.34;84.72;101747.78;5075925;28;20032;-55
2022/04/10 00:20:18;;;;;;;20.23;11.25;;;;;;;1.27;84.98;101742.38;5082394;28;20025;-54
2022/04/10 00:22:46;;;;;;;21.90;11.35;;;;;;;1.29;85.21;101747.59;5073172;28;20385;-54
2022/04/10 00:25:14;;;;;;;20.27;12.15;;;;;;;1.26;84.67;101743.41;5072960;28;20027;-55
2022/04/10 00:27:40;;;;;;;19.80;11.40;;;;;;;1.22;84.93;101745.75;5055292;28;20074;-54
2022/04/10 00:30:07;;;;;;;22.92;11.40;;;;;;;1.22;85.41;101751.22;5072997;28;20030;-54
2022/04/10 00:32:32;;;;;;;19.10;10.82;;;;;;;1.26;84.95;101746.16;5072936;28;20029;-53
2022/04/10 00:34:58;;;;;;;21.45;11.73;;;;;;;1.25;85.15;101739.03;5073278;28;20032;-53
2022/04/10 00:37:23;;;;;;;21.92;11.70;;;;;;;1.24;85.09;101740.06;5073180;28;20107;-54
2022/04/10 00:39:48;;;;;;;20.90;12.63;;;;;;;1.26;85.19;101740.69;5072985;28;20028;-54
2022/04/10 00:42:13;;;;;;;22.88;12.02;;;;;;;1.26;85.06;101737.16;5073377;28;20039;-54
2022/04/10 00:44:39;;;;;;;19.63;11.80;;;;;;;1.21;85.70;101732.38;5072827;28;20036;-54
2022/04/10 00:47:05;;;;;;;20.75;11.07;;;;;;;1.26;85.09;101735.25;5072691;28;20069;-52
2022/04/10 00:49:30;;;;;;;22.83;12.05;;;;;;;1.22;85.16;101732.13;5084479;28;20032;-55
2022/04/10 00:51:56;;;;;;;21.83;11.82;;;;;;;1.18;85.09;101739.06;5072867;28;20016;-55
2022/04/10 00:54:26;;;;;;;20.83;11.05;;;;;;;1.17;85.49;101736.56;5072618;28;20409;-56
2022/04/10 00:56:53;;;;;;;21.50;11.98;;;;;;;1.18;85.78;101730.88;5072775;28;20047;-53
2022/04/10 00:59:19;;;;;;;20.02;10.82;;;;;;;1.19;85.54;101735.28;5072710;28;20389;-55
2022/04/10 01:01:45;;;;;;;21.02;11.60;;;;;;;1.13;85.40;101733.47;5072695;28;20025;-54
2022/04/10 01:04:12;;;;;;;21.00;12.10;;;;;;;1.12;85.61;101736.41;5072654;28;20032;-54
2022/04/10 01:06:39;;;;;;;20.30;11.70;;;;;;;1.10;85.05;101731.16;5072842;28;20045;-55
2022/04/10 01:09:04;;;;;;;21.08;11.35;;;;;;;1.11;85.80;101742.91;5071885;28;20036;-55
2022/04/10 01:11:30;;;;;;;21.55;11.63;;;;;;;1.05;85.57;101737.28;5071535;28;20033;-54
2022/04/10 01:13:56;;;;;;;19.55;11.30;;;;;;;1.04;85.44;101740.22;5072387;28;20028;-55
2022/04/10 01:16:22;;;;;;;20.73;11.57;;;;;;;0.99;85.63;101735.44;5072494;28;20028;-54
2022/04/10 01:18:49;;;;;;;22.25;11.73;;;;;;;0.97;86.50;101737.53;5081550;28;20028;-55
2022/04/10 01:21:21;;;;;;;20.25;12.13;;;;;;;0.93;85.63;101733.59;5089967;28;20481;-56
2022/04/10 01:23:47;;;;;;;21.33;11.90;;;;;;;0.91;85.36;101733.81;5076353;28;20024;-53
2022/04/10 01:26:12;;;;;;;23.50;12.32;;;;;;;0.92;86.17;101742.84;5076819;28;20052;-54
2022/04/10 01:29:03;;;;;;;19.13;11.30;;;;;;;0.88;85.80;101737.00;5076357;28;20028;-55
2022/04/10 01:31:30;;;;;;;22.25;11.98;;;;;;;0.84;85.82;101738.47;5076313;28;20404;-55
2022/04/10 01:33:58;;;;;;;21.55;12.07;;;;;;;0.78;85.79;101742.91;5076338;28;20028;-56
2022/04/10 01:36:25;;;;;;;20.48;11.65;;;;;;;0.83;87.30;101746.88;5076116;28;20115;-54
2022/04/10 01:38:52;;;;;;;21.05;11.32;;;;;;;0.86;86.59;101749.13;5076182;28;20029;-51
2022/04/10 01:41:17;;;;;;;21.85;11.70;;;;;;;0.81;86.40;101749.78;5076003;28;20032;-54
2022/04/10 01:43:47;;;;;;;21.42;11.60;;;;;;;0.82;86.27;101747.91;5076243;28;20027;-53
2022/04/10 01:46:12;;;;;;;22.27;11.88;;;;;;;0.81;86.36;101752.50;5075981;28;20050;-53
2022/04/10 01:48:38;;;;;;;23.27;12.02;;;;;;;0.75;86.45;101742.50;5081249;28;20036;-53
2022/04/10 01:51:04;;;;;;;20.00;12.38;;;;;;;0.75;86.74;101743.34;5082718;28;20032;-51
2022/04/10 01:53:30;;;;;;;21.33;11.95;;;;;;;0.71;86.62;101753.00;5075554;28;20060;-51
2022/04/10 01:55:55;;;;;;;22.20;12.30;;;;;;;0.69;87.29;101746.94;5075789;28;20027;-54
2022/04/10 01:58:20;;;;;;;22.95;12.57;;;;;;;0.66;86.93;101751.97;5075858;28;20028;-52
2022/04/10 02:00:46;;;;;;;21.55;11.77;;;;;;;0.64;86.96;101749.47;5075679;28;20111;-55
2022/04/10 02:03:11;;;;;;;22.50;12.02;;;;;;;0.68;87.05;101760.78;5075834;28;20097;-53
2022/04/10 02:05:36;;;;;;;22.23;12.30;;;;;;;0.72;86.74;101762.84;5075293;28;20032;-52
2022/04/10 02:08:01;;;;;;;21.20;11.70;;;;;;;0.77;86.70;101765.75;5075687;28;20021;-53
2022/04/10 02:10:27;;;;;;;20.73;11.55;;;;;;;0.80;86.93;101755.47;5075623;28;20032;-53
2022/04/10 02:12:52;;;;;;;20.88;11.68;;;;;;;0.82;86.54;101762.34;5075406;28;20035;-54
2022/04/10 02:15:17;;;;;;;20.45;11.98;;;;;;;0.83;86.79;101765.94;5075482;28;20024;-54
2022/04/10 02:17:42;;;;;;;23.05;12.30;;;;;;;0.82;86.58;101770.53;5077655;28;20032;-54
2022/04/10 02:20:08;;;;;;;22.50;12.23;;;;;;;0.82;86.71;101772.44;5085629;28;20028;-53
2022/04/10 02:22:33;;;;;;;21.17;11.82;;;;;;;0.83;87.04;101765.94;5075383;28;20354;-54
2022/04/10 02:24:59;;;;;;;21.52;11.95;;;;;;;0.83;86.81;101765.94;5075190;28;20044;-51
2022/04/10 02:27:24;;;;;;;22.85;12.07;;;;;;;0.84;87.45;101762.16;5076610;28;20065;-52
2022/04/10 02:29:50;;;;;;;21.58;11.98;;;;;;;0.81;86.80;101759.88;5084268;28;20070;-52
2022/04/10 02:32:15;;;;;;;21.27;12.20;;;;;;;0.81;86.78;101771.59;5095440;28;20020;-54
2022/04/10 02:34:40;;;;;;;20.98;11.98;;;;;;;0.78;86.89;101770.13;5095537;28;20077;-54
2022/04/10 02:37:06;;;;;;;21.80;12.00;;;;;;;0.80;86.96;101766.38;5095425;28;20493;-52
2022/04/10 02:39:31;;;;;;;22.40;11.77;;;;;;;0.79;87.19;101771.00;5095328;28;20028;-53
2022/04/10 02:41:56;;;;;;;23.48;12.45;;;;;;;0.81;87.07;101768.03;5095488;28;20021;-52
2022/04/10 02:44:21;;;;;;;26.58;12.80;;;;;;;0.81;88.08;101776.22;5095410;28;20055;-52
2022/04/10 02:46:47;;;;;;;23.00;12.27;;;;;;;0.74;87.46;101768.06;5095126;28;20105;-54
2022/04/10 02:49:12;;;;;;;21.27;12.32;;;;;;;0.72;87.64;101768.28;5086755;28;20032;-53
2022/04/10 02:51:37;;;;;;;23.70;12.38;;;;;;;0.71;87.67;101776.69;5077558;28;20039;-53
2022/04/10 02:54:02;;;;;;;21.48;12.05;;;;;;;0.70;88.37;101775.84;5074824;28;20511;-54
2022/04/10 02:56:28;;;;;;;21.70;12.82;;;;;;;0.70;87.94;101772.28;5075085;28;20040;-55
2022/04/10 02:58:53;;;;;;;22.55;13.43;;;;;;;0.69;88.29;101774.16;5074853;28;20381;-55
2022/04/10 03:01:18;;;;;;;21.05;13.10;;;;;;;0.67;88.77;101776.25;5074630;28;20078;-53
2022/04/10 03:03:43;;;;;;;22.88;13.80;;;;;;;0.67;88.67;101786.34;5074588;28;20128;-51
2022/04/10 03:06:08;;;;;;;24.67;13.07;;;;;;;0.67;88.44;101786.34;5075092;28;20052;-54
2022/04/10 03:08:34;;;;;;;22.60;13.27;;;;;;;0.69;88.68;101785.06;5074494;28;20024;-56
2022/04/10 03:10:59;;;;;;;22.60;13.43;;;;;;;0.74;89.01;101785.25;5074460;28;20043;-54
2022/04/10 03:13:24;;;;;;;23.25;13.70;;;;;;;0.72;88.60;101791.97;5074292;28;20039;-53
2022/04/10 03:15:50;;;;;;;22.75;14.27;;;;;;;0.70;88.81;101792.19;5074445;28;20067;-53
2022/04/10 03:18:15;;;;;;;26.58;14.43;;;;;;;0.65;88.69;101786.56;5077737;28;20041;-53
2022/04/10 03:20:40;;;;;;;21.33;13.57;;;;;;;0.62;89.05;101795.97;5085581;28;20477;-54
2022/04/10 03:23:08;;;;;;;23.33;14.15;;;;;;;0.59;89.17;101788.25;5081370;28;20063;-53
2022/04/10 03:25:35;;;;;;;24.15;14.68;;;;;;;0.58;89.54;101783.00;5074231;28;20033;-55
2022/04/10 03:28:00;;;;;;;23.17;14.82;;;;;;;0.56;89.26;101794.13;5074181;28;20070;-52
2022/04/10 03:30:25;;;;;;;25.50;14.93;;;;;;;0.58;89.91;101792.03;5074004;28;20032;-55
2022/04/10 03:32:50;;;;;;;24.33;14.88;;;;;;;0.56;90.17;101798.75;5074427;28;20035;-52
2022/04/10 03:35:16;;;;;;;24.73;14.10;;;;;;;0.57;89.70;101792.22;5073813;28;20024;-54
2022/04/10 03:37:41;;;;;;;27.13;14.95;;;;;;;0.56;89.71;101796.84;5073875;28;20024;-53
2022/04/10 03:40:07;;;;;;;24.02;15.25;;;;;;;0.53;89.87;101797.28;5074123;28;20028;-53
2022/04/10 03:42:39;;;;;;;25.00;15.15;;;;;;;0.50;90.53;101799.59;5073802;28;20086;-52
2022/04/10 03:45:06;;;;;;;24.08;15.20;;;;;;;0.50;90.49;101805.03;5073855;28;20027;-53
2022/04/10 03:47:32;;;;;;;26.17;15.10;;;;;;;0.52;90.16;101803.75;5073922;28;20043;-54
2022/04/10 03:49:57;;;;;;;23.63;15.23;;;;;;;0.51;90.27;101804.00;5085147;28;20462;-53
2022/04/10 03:52:22;;;;;;;26.95;16.38;;;;;;;0.53;90.56;101815.50;5073472;28;20040;-55
2022/04/10 03:54:47;;;;;;;26.38;15.77;;;;;;;0.52;90.15;101814.66;5073929;28;20037;-55
2022/04/10 03:57:13;;;;;;;26.42;16.00;;;;;;;0.52;90.37;101811.09;5073951;28;20028;-55
2022/04/10 03:59:38;;;;;;;25.08;15.50;;;;;;;0.48;90.47;101799.81;5073924;28;20050;-55
2022/04/10 04:02:03;;;;;;;26.98;16.05;;;;;;;0.48;90.46;101813.44;5073406;28;20027;-53
2022/04/10 04:04:29;;;;;;;25.52;14.95;;;;;;;0.52;90.55;101811.94;5073643;28;20032;-51
2022/04/10 04:06:54;;;;;;;25.90;15.90;;;;;;;0.50;90.80;101815.94;5073356;28;20118;-52
2022/04/10 04:09:19;;;;;;;24.48;14.93;;;;;;;0.52;90.86;101811.09;5073467;28;20024;-55
2022/04/10 04:11:44;;;;;;;25.33;14.93;;;;;;;0.54;90.70;101817.19;5073866;28;20039;-52
2022/04/10 04:14:11;;;;;;;23.02;15.23;;;;;;;0.52;90.58;101822.00;5073224;28;20472;-50
2022/04/10 04:16:36;;;;;;;26.38;15.27;;;;;;;0.54;90.77;101820.72;5073207;28;20051;-53
2022/04/10 04:19:01;;;;;;;24.60;14.88;;;;;;;0.55;90.80;101821.59;5081397;28;20056;-52
2022/04/10 04:21:27;;;;;;;25.98;15.43;;;;;;;0.57;90.58;101820.31;5077542;28;20028;-52
2022/04/10 04:23:52;;;;;;;24.35;14.75;;;;;;;0.58;90.78;101821.13;5073431;28;20052;-55
2022/04/10 04:26:17;;;;;;;23.67;14.65;;;;;;;0.54;90.98;101814.47;5073190;28;20032;-54
2022/04/10 04:28:42;;;;;;;25.83;15.13;;;;;;;0.55;90.64;101821.59;5055122;28;20086;-53
2022/04/10 04:31:08;;;;;;;23.58;15.00;;;;;;;0.56;90.77;101824.09;5072885;28;20480;-51
2022/04/10 04:33:33;;;;;;;24.15;16.08;;;;;;;0.56;91.07;101825.97;5072856;28;20024;-55
2022/04/10 04:35:58;;;;;;;24.17;15.75;;;;;;;0.54;90.98;101825.34;5073166;28;20090;-53
2022/04/10 04:38:23;;;;;;;24.65;15.45;;;;;;;0.54;90.87;101833.53;5073196;28;20453;-53
2022/04/10 04:40:49;;;;;;;25.00;14.82;;;;;;;0.52;91.08;101836.44;5072904;28;20059;-54
2022/04/10 04:43:14;;;;;;;26.52;15.27;;;;;;;0.53;91.01;101840.84;5073027;28;20069;-52
2022/04/10 04:45:39;;;;;;;29.30;15.05;;;;;;;0.59;91.18;101837.28;5083243;28;20075;-52
2022/04/10 04:48:05;;;;;;;25.80;15.18;;;;;;;0.57;91.06;101843.97;5073898;28;20036;-53
2022/04/10 04:50:30;;;;;;;25.10;15.57;;;;;;;0.60;91.06;101833.50;5072966;28;20033;-54
2022/04/10 04:52:55;;;;;;;22.90;15.15;;;;;;;0.60;90.63;101846.28;5072132;28;20063;-55
2022/04/10 04:55:21;;;;;;;24.35;15.15;;;;;;;0.59;91.39;101840.00;5072726;28;20108;-51
2022/04/10 04:57:46;;;;;;;26.55;15.52;;;;;;;0.61;91.35;101837.06;5072613;28;20016;-53
2022/04/10 05:00:12;;;;;;;25.38;15.50;;;;;;;0.60;91.07;101847.13;5072759;28;20469;-55
2022/04/10 05:02:38;;;;;;;22.85;14.52;;;;;;;0.62;91.64;101836.81;5072438;28;20052;-55
2022/04/10 05:05:03;;;;;;;24.27;15.38;;;;;;;0.64;91.32;101843.94;5072550;28;20067;-54
2022/04/10 05:07:29;;;;;;;27.40;15.57;;;;;;;0.66;91.31;101842.72;5071013;28;20045;-52
2022/04/10 05:09:54;;;;;;;23.50;14.88;;;;;;;0.69;91.40;101846.88;5072144;28;20025;-54
2022/04/10 05:12:19;;;;;;;23.65;14.88;;;;;;;0.72;91.64;101851.88;5071519;28;20029;-54
2022/04/10 05:14:45;;;;;;;23.38;14.25;;;;;;;0.79;90.90;101850.00;5075555;28;20038;-54
2022/04/10 05:17:11;;;;;;;24.00;14.73;;;;;;;0.76;91.29;101858.59;5081207;28;20039;-54
2022/04/10 05:19:36;;;;;;;22.73;14.63;;;;;;;0.79;91.34;101855.44;5072268;28;20405;-56
2022/04/10 05:22:01;;;;;;;24.48;14.27;;;;;;;0.85;91.55;101861.91;5083846;28;20472;-50
2022/04/10 05:24:27;;;;;;;22.60;14.73;;;;;;;0.86;91.45;101858.09;5072455;28;20032;-50
2022/04/10 05:26:52;;;;;;;23.00;14.50;;;;;;;0.85;91.30;101864.63;5072493;28;20021;-51
2022/04/10 05:29:18;;;;;;;24.10;14.93;;;;;;;0.84;91.15;101861.06;5072396;28;20393;-54
2022/04/10 05:31:43;;;;;;;23.98;14.23;;;;;;;0.89;91.31;101872.16;5072183;28;20334;-54
2022/04/10 05:34:08;;;;;;;22.88;13.82;;;;;;;0.95;91.50;101866.88;5072139;28;20052;-55
2022/04/10 05:36:33;;;;;;;24.73;13.48;;;;;;;0.99;91.10;101868.97;5072156;28;20389;-54
2022/04/10 05:38:59;;;;;;;24.95;14.73;;;;;;;1.04;90.66;101880.03;5072463;28;20074;-55
2022/04/10 05:41:24;;;;;;;23.20;13.25;;;;;;;1.08;90.92;101880.47;5072269;28;20500;-53
2022/04/10 05:43:49;;;;;;;21.83;12.70;;;;;;;1.14;90.83;101876.84;5054691;28;20024;-54
2022/04/10 05:46:15;;;;;;;22.30;13.10;;;;;;;1.18;90.49;101875.34;5085495;28;20341;-52
2022/04/10 05:48:40;;;;;;;21.90;12.85;;;;;;;1.23;90.19;101885.59;5092072;28;20442;-54
2022/04/10 05:51:07;;;;;;;23.10;12.80;;;;;;;1.27;90.39;101888.75;5092138;28;20476;-55
2022/04/10 05:53:32;;;;;;;21.38;13.32;;;;;;;1.31;90.65;101895.44;5092307;28;20048;-54
2022/04/10 05:55:57;;;;;;;23.92;12.77;;;;;;;1.39;90.87;101892.44;5092235;28;20070;-52
2022/04/10 05:58:23;;;;;;;26.55;12.90;;;;;;;1.44;90.40;101892.63;5092190;28;20464;-52
2022/04/10 06:00:48;;;;;;;24.70;13.20;;;;;;;1.55;90.08;101904.72;5092150;28;20384;-51
2022/04/10 06:03:13;;;;;;;22.27;12.30;;;;;;;1.64;89.74;101908.88;5092228;28;20056;-54
2022/04/10 06:05:38;;;;;;;22.80;12.70;;;;;;;1.73;89.63;101911.31;5093575;28;20047;-55
2022/04/10 06:08:04;;;;;;;23.10;11.90;;;;;;;1.79;89.19;101915.91;5095846;28;20028;-55
2022/04/10 06:10:29;;;;;;;24.38;12.65;;;;;;;1.81;89.27;101913.78;5095697;28;20530;-51
2022/04/10 06:12:55;;;;;;;24.05;12.82;;;;;;;1.84;89.38;101916.09;5086211;28;20082;-55
2022/04/10 06:15:20;;;;;;;22.58;12.10;;;;;;;1.87;88.56;101921.09;5066808;28;20502;-54
2022/04/10 06:17:46;;;;;;;20.92;11.60;;;;;;;1.94;89.43;101919.16;5089291;28;20031;-56
2022/04/10 06:20:12;;;;;;;22.75;12.30;;;;;;;1.99;88.72;101916.59;5095537;28;20032;-53
2022/04/10 06:22:37;;;;;;;23.83;12.07;;;;;;;2.05;88.99;101922.22;5095593;28;20051;-54
2022/04/10 06:25:03;;;;;;;22.20;11.75;;;;;;;2.14;88.80;101926.34;5094487;28;20032;-54
2022/04/10 06:27:28;;;;;;;22.58;11.93;;;;;;;2.22;88.74;101928.81;5090335;28;20071;-55
2022/04/10 06:29:53;;;;;;;23.48;12.70;;;;;;;2.32;88.93;101937.31;5095465;28;20473;-58
2022/04/10 06:32:18;;;;;;;25.02;12.05;;;;;;;2.42;88.01;101938.72;5095325;28;20157;-55
2022/04/10 06:34:44;;;;;;;22.35;12.65;;;;;;;2.47;88.11;101939.72;5095254;28;20036;-56
2022/04/10 06:37:10;;;;;;;22.55;12.55;;;;;;;2.50;88.15;101935.69;5095217;28;20161;-54
2022/04/10 06:39:35;;;;;;;23.63;12.65;;;;;;;2.55;88.29;101924.09;5095436;28;20024;-54
2022/04/10 06:42:01;;;;;;;22.63;11.65;;;;;;;2.63;86.79;101946.50;5095219;28;20035;-53
2022/04/10 06:44:26;;;;;;;23.02;11.75;;;;;;;2.70;87.23;101946.41;5091220;28;20036;-51
2022/04/10 06:46:51;;;;;;;21.08;11.50;;;;;;;2.73;86.86;101943.22;5084482;28;20024;-55
2022/04/10 06:49:18;;;;;;;22.45;12.32;;;;;;;2.77;87.05;101949.06;5095048;28;20036;-55
2022/04/10 06:51:43;;;;;;;21.60;12.07;;;;;;;2.88;87.01;101956.53;5095393;28;20469;-55
2022/04/10 06:54:08;;;;;;;23.20;12.40;;;;;;;2.93;86.61;101948.47;5095050;28;20035;-54
2022/04/10 06:56:34;;;;;;;22.10;11.90;;;;;;;3.05;87.01;101956.78;5076904;28;20115;-53
2022/04/10 06:58:59;;;;;;;22.00;11.30;;;;;;;3.08;85.72;101956.28;5094779;28;20031;-51
2022/04/10 07:01:25;;;;;;;22.38;10.40;;;;;;;3.21;85.39;101951.72;5094755;28;20027;-53
2022/04/10 07:03:50;;;;;;;19.48;10.63;;;;;;;3.33;84.62;101957.25;5094273;28;20043;-51
2022/04/10 07:06:15;;;;;;;19.90;10.15;;;;;;;3.44;84.14;101961.97;5090097;28;20056;-54
2022/04/10 07:08:41;;;;;;;20.00;10.88;;;;;;;3.53;83.42;101963.31;5082368;28;20039;-53
2022/04/10 07:11:06;;;;;;;19.40;10.15;;;;;;;3.63;82.76;101959.19;5084933;28;20032;-53
2022/04/10 07:13:31;;;;;;;20.48;9.73;;;;;;;3.72;82.68;101966.00;5083018;28;20021;-55
2022/04/10 07:15:57;;;;;;;20.40;9.98;;;;;;;3.83;82.00;101967.94;5087521;28;20051;-53
2022/04/10 07:18:22;;;;;;;20.90;10.15;;;;;;;3.86;82.71;101980.34;5083637;28;20467;-53
2022/04/10 07:20:48;;;;;;;20.92;10.00;;;;;;;3.95;81.78;101975.38;5084555;28;20492;-54
2022/04/10 07:25:57;;;;;;;;;;;;;;;4.11;81.60;101974.69;5077658;28;20120;-54
2022/04/10 07:28:22;;;;;;;20.73;9.30;;;;;;;4.15;80.72;101978.66;5072778;28;19916;-54
2022/04/10 07:30:48;;;;;;;18.92;9.25;;;;;;;4.21;79.67;101977.69;5071944;28;20301;-53
2022/04/10 07:33:13;;;;;;;21.98;8.82;;;;;;;4.30;79.33;101986.38;5071521;28;20060;-51
2022/04/10 07:35:43;;;;;;;20.40;9.18;;;;;;;4.41;79.35;101982.00;5083583;28;20043;-53
2022/04/10 07:38:12;;;;;;;20.58;9.85;;;;;;;4.51;78.87;101989.63;5071160;28;20044;-53
2022/04/10 07:40:40;;;;;;;19.33;9.18;;;;;;;4.59;79.05;101991.19;5069936;28;20028;-52
2022/04/10 07:43:06;;;;;;;19.17;8.90;;;;;;;4.69;79.62;101995.00;5070917;28;20060;-51
2022/04/10 07:48:15;;;;;;;20.70;9.43;;;;;;;4.97;79.04;101996.19;5071118;28;20565;-52
2022/04/10 07:50:41;;;;;;;18.70;10.10;;;;;;;5.17;78.87;101994.16;5071565;28;20028;-53
2022/04/10 07:53:06;;;;;;;20.95;10.50;;;;;;;5.47;78.15;102000.28;5070955;28;20028;-51
2022/04/10 07:55:32;;;;;;;18.30;9.30;;;;;;;5.74;76.94;101998.84;5070733;28;20025;-54
2022/04/10 07:57:57;;;;;;;20.60;8.48;;;;;;;5.84;73.39;102000.97;5071222;28;20101;-55
2022/04/10 08:00:22;;;;;;;19.33;7.90;;;;;;;5.89;73.26;102012.91;5071145;28;20480;-53
2022/04/10 08:02:48;;;;;;;16.13;7.72;;;;;;;5.90;70.80;102016.47;5070874;28;20036;-55
2022/04/10 08:05:15;;;;;;;16.50;7.85;;;;;;;5.93;71.26;102033.28;5070833;28;20099;-51
2022/04/10 08:07:42;;;;;;;17.38;7.53;;;;;;;5.95;70.19;102038.56;5079048;28;20051;-54
2022/04/10 08:10:07;;;;;;;18.63;7.25;;;;;;;5.92;68.98;102039.03;5084913;28;20035;-50
2022/04/10 08:12:33;;;;;;;15.30;7.50;;;;;;;5.83;70.77;102055.06;5089862;28;20487;-55
2022/04/10 08:14:58;;;;;;;19.33;9.00;;;;;;;5.71;71.89;102057.03;5083835;28;20071;-51
2022/04/10 08:17:24;;;;;;;16.45;7.50;;;;;;;5.56;71.04;102065.78;5090035;28;20099;-52
2022/04/10 08:19:49;;;;;;;14.93;7.40;;;;;;;5.18;71.43;102067.16;5090913;28;20047;-52
2022/04/10 08:22:14;;;;;;;16.85;7.20;;;;;;;5.01;71.91;102065.09;5090531;28;20032;-54
2022/04/10 08:24:40;;;;;;;14.73;7.40;;;;;;;4.92;72.95;102061.91;5074460;28;20079;-50
2022/04/10 08:27:05;;;;;;;14.43;7.60;;;;;;;5.03;73.18;102056.66;5090286;28;20036;-52
2022/04/10 08:29:30;;;;;;;17.00;8.07;;;;;;;5.13;73.54;102065.94;5090281;28;20044;-54
2022/04/10 08:31:56;;;;;;;16.73;7.95;;;;;;;5.23;73.32;102059.88;5090591;28;20484;-51
2022/04/10 08:34:21;;;;;;;18.67;7.85;;;;;;;5.36;73.29;102057.91;5090475;28;20035;-52
2022/04/10 08:36:46;;;;;;;17.35;8.00;;;;;;;5.48;71.69;102058.75;5090411;28;20469;-54
2022/04/10 08:39:11;;;;;;;16.15;7.82;;;;;;;5.60;70.09;102062.31;5074195;28;20454;-52
2022/04/10 08:41:38;;;;;;;17.50;7.90;;;;;;;5.72;71.14;102062.25;5085717;28;20391;-54
2022/04/10 08:44:04;;;;;;;17.33;8.23;;;;;;;5.82;70.10;102063.56;5076856;28;20040;-53
2022/04/10 08:46:31;;;;;;;15.07;7.53;;;;;;;5.87;70.81;102061.75;5078892;28;20028;-54
2022/04/10 08:48:58;;;;;;;17.98;7.72;;;;;;;5.94;70.50;102061.59;5070409;28;20029;-55
2022/04/10 08:51:24;;;;;;;15.98;7.82;;;;;;;6.01;69.17;102054.06;5069903;28;20054;-53
2022/04/10 08:53:55;;;;;;;17.33;8.07;;;;;;;6.07;69.02;102068.75;5069643;28;20035;-51
2022/04/10 08:56:22;;;;;;;18.63;8.52;;;;;;;6.15;69.86;102067.50;5070771;28;20039;-55
2022/04/10 08:58:48;;;;;;;16.63;7.90;;;;;;;6.27;68.18;102073.78;5070383;28;20511;-56
2022/04/10 09:01:18;;;;;;;18.13;7.93;;;;;;;6.39;68.10;102070.97;5079958;28;20131;-55
2022/04/10 09:03:45;;;;;;;17.48;8.48;;;;;;;6.43;65.90;102066.66;5090352;28;20035;-54
2022/04/10 09:06:12;;;;;;;15.43;7.40;;;;;;;6.49;66.70;102065.63;5083045;28;20580;-54
2022/04/10 09:08:38;;;;;;;17.60;8.00;;;;;;;6.60;66.73;102071.31;5078783;28;20150;-55
2022/04/10 09:11:08;;;;;;;17.77;7.75;;;;;;;6.64;63.12;102065.06;5068785;28;20025;-52
2022/04/10 09:13:41;;;;;;;14.23;7.50;;;;;;;6.77;64.85;102069.41;5069149;28;20097;-53
2022/04/10 09:16:08;;;;;;;16.15;7.63;;;;;;;6.95;64.08;102071.06;5051739;28;20059;-51
2022/04/10 09:18:54;;;;;;;14.70;7.30;;;;;;;7.05;62.58;102078.63;5070224;28;20028;-54
2022/04/10 09:21:22;;;;;;;16.15;7.63;;;;;;;7.23;63.23;102077.53;5070172;28;20036;-53
2022/04/10 09:23:55;;;;;;;17.27;7.07;;;;;;;7.39;61.37;102072.22;5070178;28;20033;-53
2022/04/10 09:26:20;;;;;;;15.95;7.45;;;;;;;7.43;60.10;102081.66;5070113;28;20107;-52
2022/04/10 09:28:48;;;;;;;14.27;6.75;;;;;;;7.43;61.62;102073.41;5069861;28;20490;-52
2022/04/10 09:31:25;;;;;;;16.20;7.20;;;;;;;7.55;60.60;102074.13;5069723;28;20040;-54
2022/04/10 09:33:52;;;;;;;13.70;6.55;;;;;;;7.71;58.34;102082.56;5069995;28;20489;-53
2022/04/10 09:36:47;;;;;;;16.25;7.32;;;;;;;7.59;58.67;102055.97;5070073;28;20055;-55
2022/04/10 09:39:28;;;;;;;17.50;7.00;;;;;;;7.86;57.73;102062.63;5068057;28;20051;-55
2022/04/10 09:42:02;;;;;;;14.60;7.07;;;;;;;7.86;57.60;102059.88;5073606;28;20101;-53
2022/04/10 09:44:32;;;;;;;14.30;7.15;;;;;;;7.90;56.88;102061.88;5083092;28;20036;-55
2022/04/10 09:46:59;;;;;;;13.80;6.50;;;;;;;7.97;55.48;102067.19;5075617;28;20031;-55
2022/04/10 09:49:30;;;;;;;10.85;6.57;;;;;;;8.19;55.64;102069.91;5073569;28;20036;-56
2022/04/10 09:52:05;;;;;;;15.65;6.90;;;;;;;8.49;56.87;102063.06;5073378;28;20058;-54
2022/04/10 09:54:34;;;;;;;15.35;7.43;;;;;;;8.73;55.40;102057.16;5073438;28;20032;-54
2022/04/10 09:57:02;;;;;;;9.70;6.20;;;;;;;8.71;52.15;102051.91;5073127;28;20572;-54
2022/04/10 09:59:33;;;;;;;14.68;7.18;;;;;;;8.83;53.19;102068.28;5073773;28;20054;-55
2022/04/10 10:01:58;;;;;;;10.02;6.60;;;;;;;8.84;50.96;102069.09;5073186;28;20143;-55
2022/04/10 10:04:24;;;;;;;13.07;6.75;;;;;;;8.90;50.88;102074.41;5073032;28;20107;-52
2022/04/10 10:06:50;;;;;;;13.32;7.10;;;;;;;9.01;51.07;102055.16;5076371;28;20044;-55
2022/04/10 10:09:16;;;;;;;9.45;6.40;;;;;;;9.06;50.44;102063.47;5082286;28;20155;-54
2022/04/10 10:11:42;;;;;;;14.20;6.68;;;;;;;9.10;50.58;102055.50;5073076;28;20072;-56
2022/04/10 10:14:08;;;;;;;13.90;6.57;;;;;;;8.95;50.55;102054.28;5073198;28;20028;-55
2022/04/10 10:16:34;;;;;;;9.48;6.35;;;;;;;9.04;50.38;102054.63;5073031;28;20056;-54
2022/04/10 10:19:00;;;;;;;11.73;6.20;;;;;;;9.03;48.94;102047.44;5073310;28;20055;-56
2022/04/10 10:21:26;;;;;;;10.82;6.40;;;;;;;9.01;48.38;102055.16;5073051;28;20480;-56
2022/04/10 10:23:53;;;;;;;10.40;5.70;;;;;;;8.91;49.21;102055.94;5072769;28;20056;-54
2022/04/10 10:26:37;;;;;;;12.80;6.50;;;;;;;9.02;48.81;102056.81;5073055;28;20047;-55
2022/04/10 10:29:16;;;;;;;10.68;6.20;;;;;;;9.07;49.07;102051.31;5055308;28;20112;-55
2022/04/10 10:31:54;;;;;;;12.88;6.63;;;;;;;9.07;48.83;102056.03;5073004;28;20036;-55
2022/04/10 10:34:22;;;;;;;13.70;6.60;;;;;;;9.12;49.20;102045.84;5073172;28;20036;-55
2022/04/10 10:36:47;;;;;;;13.65;6.68;;;;;;;9.32;48.93;102045.13;5077594;28;20028;-54
2022/04/10 10:39:12;;;;;;;13.75;6.75;;;;;;;9.27;47.45;102047.88;5082513;28;20047;-55
2022/04/10 10:41:38;;;;;;;15.45;7.78;;;;;;;9.16;48.49;102043.38;5093119;28;20035;-56
2022/04/10 10:44:17;;;;;;;11.45;6.35;;;;;;;8.96;48.10;102053.19;5093130;28;20077;-54
2022/04/10 10:47:19;;;;;;;13.73;6.97;;;;;;;8.81;48.32;102040.13;5093194;28;20047;-55
2022/04/10 10:49:46;;;;;;;10.98;6.47;;;;;;;9.01;48.45;102044.13;5050411;28;20044;-56
2022/04/10 10:52:13;;;;;;;14.50;6.47;;;;;;;9.30;48.33;102047.34;5092324;28;20035;-54
2022/04/10 10:54:56;;;;;;;11.68;6.35;;;;;;;9.44;47.90;102039.41;5092619;28;20024;-55
2022/04/10 10:57:39;;;;;;;10.75;6.00;;;;;;;9.35;47.94;102050.13;5093097;28;20103;-55
2022/04/10 11:00:23;;;;;;;10.60;6.07;;;;;;;9.25;46.53;102050.06;5093020;28;20051;-55
2022/04/10 11:02:52;;;;;;;11.43;6.05;;;;;;;9.14;45.53;102053.84;5092733;28;20035;-53
2022/04/10 11:05:24;;;;;;;11.98;5.88;;;;;;;9.22;45.80;102053.34;5092707;28;20020;-55
2022/04/10 11:08:02;;;;;;;12.15;6.07;;;;;;;9.34;45.12;102039.34;5080250;28;20044;-55
2022/04/10 11:10:29;;;;;;;12.43;6.32;;;;;;;9.47;45.26;102029.75;5076678;28;20530;-54
2022/04/10 11:13:01;;;;;;;12.40;6.20;;;;;;;9.70;45.52;102042.25;5080729;28;20078;-55
2022/04/10 11:15:45;;;;;;;16.60;7.05;;;;;;;9.82;45.82;102037.31;5071670;28;20017;-55
2022/04/10 11:18:31;;;;;;;26.92;11.90;;;;;;;10.16;46.69;102033.22;5072133;28;20056;-55
2022/04/10 11:21:21;;;;;;;11.32;6.72;;;;;;;10.22;45.17;102036.84;5072472;28;20025;-59
2022/04/10 11:23:48;;;;;;;11.10;6.40;;;;;;;10.17;46.00;102029.38;5066265;28;20040;-55